sensor_id;sensor_type;location;lat;lon;timestamp;P1;durP1;ratioP1;P2;durP2;ratioP2
19585;SDS011;9939;49.246;9.106;2022-08-21T00:02:17;8.13;;;2.60;;
19585;SDS011;9939;49.246;9.106;2022-08-21T00:04:47;6.93;;;2.80;;
19585;SDS011;9939;49.246;9.106;2022-08-21T00:07:23;5.20;;;2.83;;
19585;SDS011;9939;49.246;9.106;2022-08-21T00:09:50;4.37;;;2.23;;
19585;SDS011;9939;49.246;9.106;2022-08-21T00:12:18;5.33;;;2.50;;
19585;SDS011;9939;49.246;9.106;2022-08-21T00:14:45;8.77;;;2.97;;
19585;SDS011;9939;49.246;9.106;2022-08-21T00:17:13;5.90;;;2.80;;
19585;SDS011;9939;49.246;9.106;2022-08-21T00:19:40;8.63;;;2.90;;
19585;SDS011;9939;49.246;9.106;2022-08-21T00:22:07;4.93;;;2.53;;
19585;SDS011;9939;49.246;9.106;2022-08-21T00:24:34;6.33;;;3.00;;
19585;SDS011;9939;49.246;9.106;2022-08-21T00:27:00;5.33;;;2.83;;
19585;SDS011;9939;49.246;9.106;2022-08-21T00:29:27;4.17;;;2.43;;
19585;SDS011;9939;49.246;9.106;2022-08-21T00:31:54;3.80;;;2.40;;
19585;SDS011;9939;49.246;9.106;2022-08-21T00:34:22;6.23;;;2.20;;
19585;SDS011;9939;49.246;9.106;2022-08-21T00:36:49;5.90;;;3.20;;
19585;SDS011;9939;49.246;9.106;2022-08-21T00:39:16;9.07;;;3.10;;
19585;SDS011;9939;49.246;9.106;2022-08-21T00:41:43;6.80;;;3.07;;
19585;SDS011;9939;49.246;9.106;2022-08-21T00:44:11;6.57;;;3.17;;
19585;SDS011;9939;49.246;9.106;2022-08-21T00:46:41;6.27;;;3.13;;
19585;SDS011;9939;49.246;9.106;2022-08-21T00:49:10;6.17;;;2.43;;
19585;SDS011;9939;49.246;9.106;2022-08-21T00:51:48;6.53;;;2.80;;
19585;SDS011;9939;49.246;9.106;2022-08-21T00:54:18;6.73;;;2.80;;
19585;SDS011;9939;49.246;9.106;2022-08-21T00:56:50;6.93;;;2.60;;
19585;SDS011;9939;49.246;9.106;2022-08-21T00:59:24;7.30;;;2.67;;
19585;SDS011;9939;49.246;9.106;2022-08-21T01:01:53;5.67;;;3.00;;
19585;SDS011;9939;49.246;9.106;2022-08-21T01:04:20;5.60;;;2.70;;
19585;SDS011;9939;49.246;9.106;2022-08-21T01:06:48;7.43;;;2.97;;
19585;SDS011;9939;49.246;9.106;2022-08-21T01:09:15;7.23;;;3.40;;
19585;SDS011;9939;49.246;9.106;2022-08-21T01:11:42;4.70;;;2.40;;
19585;SDS011;9939;49.246;9.106;2022-08-21T01:14:10;7.73;;;3.10;;
19585;SDS011;9939;49.246;9.106;2022-08-21T01:16:40;6.50;;;3.20;;
19585;SDS011;9939;49.246;9.106;2022-08-21T01:19:11;5.53;;;2.60;;
19585;SDS011;9939;49.246;9.106;2022-08-21T01:21:38;6.10;;;3.10;;
19585;SDS011;9939;49.246;9.106;2022-08-21T01:24:05;7.10;;;3.57;;
19585;SDS011;9939;49.246;9.106;2022-08-21T01:26:33;5.97;;;3.13;;
19585;SDS011;9939;49.246;9.106;2022-08-21T01:31:52;6.97;;;3.73;;
19585;SDS011;9939;49.246;9.106;2022-08-21T01:34:19;6.60;;;3.00;;
19585;SDS011;9939;49.246;9.106;2022-08-21T01:36:46;8.53;;;3.40;;
19585;SDS011;9939;49.246;9.106;2022-08-21T01:39:14;6.13;;;3.30;;
19585;SDS011;9939;49.246;9.106;2022-08-21T01:41:42;7.00;;;3.33;;
19585;SDS011;9939;49.246;9.106;2022-08-21T01:44:09;5.40;;;3.30;;
19585;SDS011;9939;49.246;9.106;2022-08-21T01:46:36;7.00;;;3.20;;
19585;SDS011;9939;49.246;9.106;2022-08-21T01:49:03;5.50;;;3.40;;
19585;SDS011;9939;49.246;9.106;2022-08-21T01:51:31;5.33;;;3.30;;
19585;SDS011;9939;49.246;9.106;2022-08-21T01:53:58;8.33;;;3.23;;
19585;SDS011;9939;49.246;9.106;2022-08-21T01:56:25;7.90;;;3.50;;
19585;SDS011;9939;49.246;9.106;2022-08-21T01:58:54;6.57;;;3.83;;
19585;SDS011;9939;49.246;9.106;2022-08-21T02:01:21;6.40;;;3.80;;
19585;SDS011;9939;49.246;9.106;2022-08-21T02:03:48;7.07;;;3.10;;
19585;SDS011;9939;49.246;9.106;2022-08-21T02:06:15;7.63;;;3.33;;
19585;SDS011;9939;49.246;9.106;2022-08-21T02:08:44;6.27;;;3.63;;
19585;SDS011;9939;49.246;9.106;2022-08-21T02:11:12;6.33;;;3.60;;
19585;SDS011;9939;49.246;9.106;2022-08-21T02:13:39;10.90;;;3.60;;
19585;SDS011;9939;49.246;9.106;2022-08-21T02:16:07;8.67;;;3.73;;
19585;SDS011;9939;49.246;9.106;2022-08-21T02:18:34;8.77;;;4.07;;
19585;SDS011;9939;49.246;9.106;2022-08-21T02:21:01;7.40;;;3.60;;
19585;SDS011;9939;49.246;9.106;2022-08-21T02:23:29;7.07;;;3.60;;
19585;SDS011;9939;49.246;9.106;2022-08-21T02:25:57;6.87;;;4.10;;
19585;SDS011;9939;49.246;9.106;2022-08-21T02:28:25;8.37;;;4.20;;
19585;SDS011;9939;49.246;9.106;2022-08-21T02:30:53;7.60;;;3.60;;
19585;SDS011;9939;49.246;9.106;2022-08-21T02:33:22;7.40;;;3.93;;
19585;SDS011;9939;49.246;9.106;2022-08-21T02:35:49;8.90;;;3.83;;
19585;SDS011;9939;49.246;9.106;2022-08-21T02:38:18;9.63;;;4.33;;
19585;SDS011;9939;49.246;9.106;2022-08-21T02:40:48;8.10;;;3.57;;
19585;SDS011;9939;49.246;9.106;2022-08-21T02:43:17;6.20;;;3.53;;
19585;SDS011;9939;49.246;9.106;2022-08-21T02:45:46;6.20;;;3.70;;
19585;SDS011;9939;49.246;9.106;2022-08-21T02:48:15;7.00;;;4.00;;
19585;SDS011;9939;49.246;9.106;2022-08-21T02:50:51;6.50;;;3.97;;
19585;SDS011;9939;49.246;9.106;2022-08-21T02:53:26;7.63;;;3.77;;
19585;SDS011;9939;49.246;9.106;2022-08-21T02:55:56;8.97;;;3.70;;
19585;SDS011;9939;49.246;9.106;2022-08-21T02:58:26;6.53;;;3.67;;
19585;SDS011;9939;49.246;9.106;2022-08-21T03:00:57;6.90;;;3.67;;
19585;SDS011;9939;49.246;9.106;2022-08-21T03:03:25;8.30;;;4.20;;
19585;SDS011;9939;49.246;9.106;2022-08-21T03:05:53;8.33;;;3.83;;
19585;SDS011;9939;49.246;9.106;2022-08-21T03:08:20;6.93;;;3.90;;
19585;SDS011;9939;49.246;9.106;2022-08-21T03:10:53;8.50;;;4.37;;
19585;SDS011;9939;49.246;9.106;2022-08-21T03:13:20;8.00;;;3.73;;
19585;SDS011;9939;49.246;9.106;2022-08-21T03:15:49;7.10;;;3.83;;
19585;SDS011;9939;49.246;9.106;2022-08-21T03:18:16;7.33;;;3.97;;
19585;SDS011;9939;49.246;9.106;2022-08-21T03:20:44;10.57;;;4.63;;
19585;SDS011;9939;49.246;9.106;2022-08-21T03:23:11;10.07;;;4.63;;
19585;SDS011;9939;49.246;9.106;2022-08-21T03:25:44;8.10;;;4.40;;
19585;SDS011;9939;49.246;9.106;2022-08-21T03:28:13;7.87;;;4.03;;
19585;SDS011;9939;49.246;9.106;2022-08-21T03:30:43;8.93;;;5.10;;
19585;SDS011;9939;49.246;9.106;2022-08-21T03:33:11;10.10;;;4.20;;
19585;SDS011;9939;49.246;9.106;2022-08-21T03:35:44;8.83;;;4.10;;
19585;SDS011;9939;49.246;9.106;2022-08-21T03:38:15;8.90;;;4.33;;
19585;SDS011;9939;49.246;9.106;2022-08-21T03:40:42;9.90;;;5.17;;
19585;SDS011;9939;49.246;9.106;2022-08-21T03:43:09;9.07;;;4.30;;
19585;SDS011;9939;49.246;9.106;2022-08-21T03:45:37;8.37;;;4.03;;
19585;SDS011;9939;49.246;9.106;2022-08-21T03:48:05;8.30;;;3.80;;
19585;SDS011;9939;49.246;9.106;2022-08-21T03:50:35;10.43;;;5.00;;
19585;SDS011;9939;49.246;9.106;2022-08-21T03:53:07;9.63;;;4.17;;
19585;SDS011;9939;49.246;9.106;2022-08-21T03:55:47;9.80;;;4.33;;
19585;SDS011;9939;49.246;9.106;2022-08-21T03:58:16;9.80;;;4.47;;
19585;SDS011;9939;49.246;9.106;2022-08-21T04:00:47;8.77;;;4.40;;
19585;SDS011;9939;49.246;9.106;2022-08-21T04:03:16;8.23;;;4.07;;
19585;SDS011;9939;49.246;9.106;2022-08-21T04:05:44;8.30;;;4.70;;
19585;SDS011;9939;49.246;9.106;2022-08-21T04:08:12;9.97;;;5.30;;
19585;SDS011;9939;49.246;9.106;2022-08-21T04:10:40;12.67;;;5.00;;
19585;SDS011;9939;49.246;9.106;2022-08-21T04:13:09;7.47;;;4.50;;
19585;SDS011;9939;49.246;9.106;2022-08-21T04:15:37;8.87;;;4.67;;
19585;SDS011;9939;49.246;9.106;2022-08-21T04:18:05;7.60;;;4.23;;
19585;SDS011;9939;49.246;9.106;2022-08-21T04:20:32;7.27;;;3.60;;
19585;SDS011;9939;49.246;9.106;2022-08-21T04:22:59;7.50;;;4.23;;
19585;SDS011;9939;49.246;9.106;2022-08-21T04:25:27;7.33;;;3.83;;
19585;SDS011;9939;49.246;9.106;2022-08-21T04:27:55;8.37;;;4.40;;
19585;SDS011;9939;49.246;9.106;2022-08-21T04:30:22;7.50;;;4.33;;
19585;SDS011;9939;49.246;9.106;2022-08-21T04:32:53;9.77;;;4.27;;
19585;SDS011;9939;49.246;9.106;2022-08-21T04:35:22;9.17;;;4.40;;
19585;SDS011;9939;49.246;9.106;2022-08-21T04:37:50;9.43;;;4.00;;
19585;SDS011;9939;49.246;9.106;2022-08-21T04:40:17;10.20;;;4.13;;
19585;SDS011;9939;49.246;9.106;2022-08-21T04:42:51;8.60;;;4.17;;
19585;SDS011;9939;49.246;9.106;2022-08-21T04:45:24;9.33;;;4.30;;
19585;SDS011;9939;49.246;9.106;2022-08-21T04:47:57;9.07;;;4.10;;
19585;SDS011;9939;49.246;9.106;2022-08-21T04:50:28;9.07;;;4.20;;
19585;SDS011;9939;49.246;9.106;2022-08-21T04:53:02;7.50;;;4.07;;
19585;SDS011;9939;49.246;9.106;2022-08-21T04:55:31;8.67;;;4.33;;
19585;SDS011;9939;49.246;9.106;2022-08-21T04:57:59;7.23;;;4.23;;
19585;SDS011;9939;49.246;9.106;2022-08-21T05:00:26;8.03;;;4.07;;
19585;SDS011;9939;49.246;9.106;2022-08-21T05:02:53;7.63;;;4.27;;
19585;SDS011;9939;49.246;9.106;2022-08-21T05:05:25;7.90;;;4.07;;
19585;SDS011;9939;49.246;9.106;2022-08-21T05:07:55;10.00;;;4.43;;
19585;SDS011;9939;49.246;9.106;2022-08-21T05:10:26;7.07;;;3.73;;
19585;SDS011;9939;49.246;9.106;2022-08-21T05:12:54;8.37;;;3.90;;
19585;SDS011;9939;49.246;9.106;2022-08-21T05:15:21;6.97;;;4.20;;
19585;SDS011;9939;49.246;9.106;2022-08-21T05:17:49;9.67;;;4.17;;
19585;SDS011;9939;49.246;9.106;2022-08-21T05:20:26;8.20;;;3.77;;
19585;SDS011;9939;49.246;9.106;2022-08-21T05:22:53;8.33;;;4.00;;
19585;SDS011;9939;49.246;9.106;2022-08-21T05:25:20;8.17;;;3.83;;
19585;SDS011;9939;49.246;9.106;2022-08-21T05:27:49;11.40;;;4.30;;
19585;SDS011;9939;49.246;9.106;2022-08-21T05:30:18;12.93;;;4.87;;
19585;SDS011;9939;49.246;9.106;2022-08-21T05:32:46;9.83;;;4.30;;
19585;SDS011;9939;49.246;9.106;2022-08-21T05:35:14;8.20;;;4.30;;
19585;SDS011;9939;49.246;9.106;2022-08-21T05:37:41;7.63;;;4.27;;
19585;SDS011;9939;49.246;9.106;2022-08-21T05:40:08;8.80;;;3.83;;
19585;SDS011;9939;49.246;9.106;2022-08-21T05:42:48;5.57;;;3.60;;
19585;SDS011;9939;49.246;9.106;2022-08-21T05:45:25;7.40;;;4.00;;
19585;SDS011;9939;49.246;9.106;2022-08-21T05:48:17;9.07;;;4.10;;
19585;SDS011;9939;49.246;9.106;2022-08-21T05:50:49;7.77;;;4.50;;
19585;SDS011;9939;49.246;9.106;2022-08-21T05:53:17;8.00;;;4.03;;
19585;SDS011;9939;49.246;9.106;2022-08-21T05:55:45;7.67;;;4.27;;
19585;SDS011;9939;49.246;9.106;2022-08-21T05:58:13;9.20;;;4.40;;
19585;SDS011;9939;49.246;9.106;2022-08-21T06:00:42;7.47;;;4.73;;
19585;SDS011;9939;49.246;9.106;2022-08-21T06:03:11;9.57;;;4.17;;
19585;SDS011;9939;49.246;9.106;2022-08-21T06:05:43;10.60;;;4.50;;
19585;SDS011;9939;49.246;9.106;2022-08-21T06:08:12;10.10;;;4.47;;
19585;SDS011;9939;49.246;9.106;2022-08-21T06:10:40;10.07;;;4.73;;
19585;SDS011;9939;49.246;9.106;2022-08-21T06:13:07;8.07;;;4.60;;
19585;SDS011;9939;49.246;9.106;2022-08-21T06:15:34;7.43;;;4.20;;
19585;SDS011;9939;49.246;9.106;2022-08-21T06:18:01;10.03;;;4.00;;
19585;SDS011;9939;49.246;9.106;2022-08-21T06:20:29;7.57;;;3.53;;
19585;SDS011;9939;49.246;9.106;2022-08-21T06:22:56;11.63;;;4.00;;
19585;SDS011;9939;49.246;9.106;2022-08-21T06:25:24;7.97;;;3.70;;
19585;SDS011;9939;49.246;9.106;2022-08-21T06:27:51;7.43;;;3.30;;
19585;SDS011;9939;49.246;9.106;2022-08-21T06:30:19;5.00;;;3.37;;
19585;SDS011;9939;49.246;9.106;2022-08-21T06:32:46;8.37;;;3.40;;
19585;SDS011;9939;49.246;9.106;2022-08-21T06:35:13;5.77;;;3.47;;
19585;SDS011;9939;49.246;9.106;2022-08-21T06:37:40;8.37;;;3.23;;
19585;SDS011;9939;49.246;9.106;2022-08-21T06:40:07;8.03;;;3.30;;
19585;SDS011;9939;49.246;9.106;2022-08-21T06:42:38;10.43;;;3.83;;
19585;SDS011;9939;49.246;9.106;2022-08-21T06:45:08;11.67;;;3.97;;
19585;SDS011;9939;49.246;9.106;2022-08-21T06:47:36;8.13;;;3.20;;
19585;SDS011;9939;49.246;9.106;2022-08-21T06:50:03;8.90;;;3.93;;
19585;SDS011;9939;49.246;9.106;2022-08-21T06:52:34;12.20;;;4.03;;
19585;SDS011;9939;49.246;9.106;2022-08-21T06:55:04;10.67;;;3.90;;
19585;SDS011;9939;49.246;9.106;2022-08-21T06:57:33;7.53;;;3.57;;
19585;SDS011;9939;49.246;9.106;2022-08-21T07:00:00;7.93;;;3.67;;
19585;SDS011;9939;49.246;9.106;2022-08-21T07:02:31;10.33;;;3.47;;
19585;SDS011;9939;49.246;9.106;2022-08-21T07:05:00;10.13;;;3.50;;
19585;SDS011;9939;49.246;9.106;2022-08-21T07:07:43;7.77;;;3.60;;
19585;SDS011;9939;49.246;9.106;2022-08-21T07:10:10;8.77;;;3.50;;
19585;SDS011;9939;49.246;9.106;2022-08-21T07:12:48;7.00;;;3.23;;
19585;SDS011;9939;49.246;9.106;2022-08-21T07:15:27;7.73;;;3.40;;
19585;SDS011;9939;49.246;9.106;2022-08-21T07:17:55;7.43;;;3.43;;
19585;SDS011;9939;49.246;9.106;2022-08-21T07:20:23;9.43;;;3.63;;
19585;SDS011;9939;49.246;9.106;2022-08-21T07:22:50;7.07;;;3.70;;
19585;SDS011;9939;49.246;9.106;2022-08-21T07:25:17;8.20;;;3.43;;
19585;SDS011;9939;49.246;9.106;2022-08-21T07:27:44;7.73;;;4.00;;
19585;SDS011;9939;49.246;9.106;2022-08-21T07:30:12;7.67;;;3.40;;
19585;SDS011;9939;49.246;9.106;2022-08-21T07:32:39;9.20;;;4.03;;
19585;SDS011;9939;49.246;9.106;2022-08-21T07:35:06;9.23;;;3.60;;
19585;SDS011;9939;49.246;9.106;2022-08-21T07:37:33;12.67;;;3.57;;
19585;SDS011;9939;49.246;9.106;2022-08-21T07:40:00;9.27;;;3.73;;
19585;SDS011;9939;49.246;9.106;2022-08-21T07:42:27;11.03;;;3.80;;
19585;SDS011;9939;49.246;9.106;2022-08-21T07:44:55;8.23;;;4.20;;
19585;SDS011;9939;49.246;9.106;2022-08-21T07:47:22;7.47;;;3.83;;
19585;SDS011;9939;49.246;9.106;2022-08-21T07:50:08;9.07;;;3.77;;
19585;SDS011;9939;49.246;9.106;2022-08-21T07:52:38;8.47;;;3.57;;
19585;SDS011;9939;49.246;9.106;2022-08-21T07:55:07;8.67;;;4.10;;
19585;SDS011;9939;49.246;9.106;2022-08-21T07:57:35;8.20;;;3.77;;
19585;SDS011;9939;49.246;9.106;2022-08-21T08:00:06;11.07;;;3.73;;
19585;SDS011;9939;49.246;9.106;2022-08-21T08:02:39;10.30;;;4.47;;
19585;SDS011;9939;49.246;9.106;2022-08-21T08:05:08;9.97;;;4.23;;
19585;SDS011;9939;49.246;9.106;2022-08-21T08:07:37;11.43;;;4.87;;
19585;SDS011;9939;49.246;9.106;2022-08-21T08:10:05;8.00;;;4.20;;
19585;SDS011;9939;49.246;9.106;2022-08-21T08:12:34;12.13;;;4.03;;
19585;SDS011;9939;49.246;9.106;2022-08-21T08:15:03;9.77;;;4.10;;
19585;SDS011;9939;49.246;9.106;2022-08-21T08:17:32;12.13;;;4.33;;
19585;SDS011;9939;49.246;9.106;2022-08-21T08:19:59;11.10;;;4.40;;
19585;SDS011;9939;49.246;9.106;2022-08-21T08:22:27;10.67;;;4.40;;
19585;SDS011;9939;49.246;9.106;2022-08-21T08:24:54;9.37;;;3.23;;
19585;SDS011;9939;49.246;9.106;2022-08-21T08:27:22;8.70;;;4.23;;
19585;SDS011;9939;49.246;9.106;2022-08-21T08:29:49;7.73;;;4.50;;
19585;SDS011;9939;49.246;9.106;2022-08-21T08:32:16;11.47;;;4.63;;
19585;SDS011;9939;49.246;9.106;2022-08-21T08:34:43;8.50;;;3.87;;
19585;SDS011;9939;49.246;9.106;2022-08-21T08:37:10;8.60;;;3.93;;
19585;SDS011;9939;49.246;9.106;2022-08-21T08:39:37;7.53;;;3.80;;
19585;SDS011;9939;49.246;9.106;2022-08-21T08:42:09;8.73;;;3.73;;
19585;SDS011;9939;49.246;9.106;2022-08-21T08:45:00;6.17;;;3.60;;
19585;SDS011;9939;49.246;9.106;2022-08-21T08:47:32;8.40;;;4.13;;
19585;SDS011;9939;49.246;9.106;2022-08-21T08:50:06;10.17;;;4.33;;
19585;SDS011;9939;49.246;9.106;2022-08-21T08:52:46;9.63;;;3.90;;
19585;SDS011;9939;49.246;9.106;2022-08-21T08:55:36;7.88;;;4.55;;
19585;SDS011;9939;49.246;9.106;2022-08-21T08:58:06;7.38;;;4.07;;
19585;SDS011;9939;49.246;9.106;2022-08-21T09:00:37;8.95;;;4.22;;
19585;SDS011;9939;49.246;9.106;2022-08-21T09:03:04;6.30;;;3.97;;
19585;SDS011;9939;49.246;9.106;2022-08-21T09:05:36;13.05;;;4.55;;
19585;SDS011;9939;49.246;9.106;2022-08-21T09:11:07;8.77;;;4.10;;
19585;SDS011;9939;49.246;9.106;2022-08-21T09:13:52;9.65;;;3.72;;
19585;SDS011;9939;49.246;9.106;2022-08-21T09:22:00;8.15;;;4.00;;
19585;SDS011;9939;49.246;9.106;2022-08-21T09:24:42;9.80;;;3.67;;
19585;SDS011;9939;49.246;9.106;2022-08-21T09:27:17;9.45;;;3.47;;
19585;SDS011;9939;49.246;9.106;2022-08-21T09:29:48;10.80;;;3.70;;
19585;SDS011;9939;49.246;9.106;2022-08-21T09:32:23;7.38;;;3.28;;
19585;SDS011;9939;49.246;9.106;2022-08-21T09:35:05;7.85;;;3.33;;
19585;SDS011;9939;49.246;9.106;2022-08-21T09:37:45;7.78;;;3.20;;
19585;SDS011;9939;49.246;9.106;2022-08-21T09:40:29;7.50;;;3.03;;
19585;SDS011;9939;49.246;9.106;2022-08-21T09:43:06;10.02;;;3.75;;
19585;SDS011;9939;49.246;9.106;2022-08-21T09:45:44;6.78;;;3.83;;
19585;SDS011;9939;49.246;9.106;2022-08-21T09:48:13;4.95;;;2.60;;
19585;SDS011;9939;49.246;9.106;2022-08-21T09:56:39;8.20;;;3.38;;
19585;SDS011;9939;49.246;9.106;2022-08-21T09:59:42;8.75;;;3.00;;
19585;SDS011;9939;49.246;9.106;2022-08-21T10:02:26;7.85;;;3.55;;
19585;SDS011;9939;49.246;9.106;2022-08-21T10:05:17;6.57;;;2.90;;
19585;SDS011;9939;49.246;9.106;2022-08-21T10:07:49;8.85;;;3.40;;
19585;SDS011;9939;49.246;9.106;2022-08-21T10:18:22;6.65;;;2.83;;
19585;SDS011;9939;49.246;9.106;2022-08-21T10:21:02;5.97;;;2.75;;
19585;SDS011;9939;49.246;9.106;2022-08-21T10:23:50;8.18;;;2.97;;
19585;SDS011;9939;49.246;9.106;2022-08-21T10:26:34;6.82;;;3.20;;
19585;SDS011;9939;49.246;9.106;2022-08-21T10:34:59;6.20;;;2.97;;
19585;SDS011;9939;49.246;9.106;2022-08-21T10:42:55;6.80;;;3.08;;
19585;SDS011;9939;49.246;9.106;2022-08-21T10:48:33;8.10;;;2.95;;
19585;SDS011;9939;49.246;9.106;2022-08-21T10:51:16;8.00;;;3.55;;
19585;SDS011;9939;49.246;9.106;2022-08-21T10:54:25;6.22;;;2.83;;
19585;SDS011;9939;49.246;9.106;2022-08-21T10:57:12;9.73;;;3.22;;
19585;SDS011;9939;49.246;9.106;2022-08-21T11:00:03;7.88;;;3.05;;
19585;SDS011;9939;49.246;9.106;2022-08-21T11:05:39;8.80;;;2.65;;
19585;SDS011;9939;49.246;9.106;2022-08-21T11:08:12;6.80;;;2.60;;
19585;SDS011;9939;49.246;9.106;2022-08-21T11:10:44;4.78;;;3.03;;
19585;SDS011;9939;49.246;9.106;2022-08-21T11:13:45;5.40;;;2.90;;
19585;SDS011;9939;49.246;9.106;2022-08-21T11:16:32;9.43;;;2.92;;
19585;SDS011;9939;49.246;9.106;2022-08-21T11:24:57;7.05;;;3.00;;
19585;SDS011;9939;49.246;9.106;2022-08-21T11:30:09;8.25;;;3.13;;
19585;SDS011;9939;49.246;9.106;2022-08-21T11:32:44;5.15;;;3.17;;
19585;SDS011;9939;49.246;9.106;2022-08-21T11:40:54;5.65;;;2.75;;
19585;SDS011;9939;49.246;9.106;2022-08-21T11:43:39;7.38;;;2.70;;
19585;SDS011;9939;49.246;9.106;2022-08-21T11:51:20;8.75;;;3.17;;
19585;SDS011;9939;49.246;9.106;2022-08-21T11:54:04;7.90;;;2.90;;
19585;SDS011;9939;49.246;9.106;2022-08-21T11:57:00;7.47;;;3.25;;
19585;SDS011;9939;49.246;9.106;2022-08-21T11:59:41;7.90;;;3.28;;
19585;SDS011;9939;49.246;9.106;2022-08-21T12:02:14;6.07;;;2.67;;
19585;SDS011;9939;49.246;9.106;2022-08-21T12:04:55;5.80;;;2.92;;
19585;SDS011;9939;49.246;9.106;2022-08-21T12:10:08;6.68;;;2.95;;
19585;SDS011;9939;49.246;9.106;2022-08-21T12:12:43;5.63;;;2.50;;
19585;SDS011;9939;49.246;9.106;2022-08-21T12:17:53;5.28;;;2.90;;
19585;SDS011;9939;49.246;9.106;2022-08-21T12:23:04;6.15;;;2.78;;
19585;SDS011;9939;49.246;9.106;2022-08-21T12:28:12;5.05;;;2.50;;
19585;SDS011;9939;49.246;9.106;2022-08-21T12:30:49;5.20;;;2.80;;
19585;SDS011;9939;49.246;9.106;2022-08-21T12:33:24;5.93;;;2.85;;
19585;SDS011;9939;49.246;9.106;2022-08-21T12:36:09;5.85;;;2.92;;
19585;SDS011;9939;49.246;9.106;2022-08-21T12:38:47;7.53;;;2.88;;
19585;SDS011;9939;49.246;9.106;2022-08-21T12:41:42;8.25;;;3.45;;
19585;SDS011;9939;49.246;9.106;2022-08-21T12:44:17;5.15;;;2.60;;
19585;SDS011;9939;49.246;9.106;2022-08-21T12:47:02;4.75;;;2.65;;
19585;SDS011;9939;49.246;9.106;2022-08-21T12:49:35;4.88;;;2.63;;
19585;SDS011;9939;49.246;9.106;2022-08-21T12:52:19;5.43;;;3.15;;
19585;SDS011;9939;49.246;9.106;2022-08-21T12:54:49;6.60;;;3.55;;
19585;SDS011;9939;49.246;9.106;2022-08-21T12:57:21;6.22;;;3.13;;
19585;SDS011;9939;49.246;9.106;2022-08-21T13:02:23;4.40;;;2.60;;
19585;SDS011;9939;49.246;9.106;2022-08-21T13:04:56;6.40;;;3.00;;
19585;SDS011;9939;49.246;9.106;2022-08-21T13:07:28;4.57;;;2.50;;
19585;SDS011;9939;49.246;9.106;2022-08-21T13:10:00;4.95;;;2.78;;
19585;SDS011;9939;49.246;9.106;2022-08-21T13:12:29;6.88;;;3.38;;
19585;SDS011;9939;49.246;9.106;2022-08-21T13:14:58;6.47;;;3.05;;
19585;SDS011;9939;49.246;9.106;2022-08-21T13:17:36;6.75;;;2.60;;
19585;SDS011;9939;49.246;9.106;2022-08-21T13:20:08;5.63;;;3.00;;
19585;SDS011;9939;49.246;9.106;2022-08-21T13:22:44;4.57;;;2.55;;
19585;SDS011;9939;49.246;9.106;2022-08-21T13:25:12;4.47;;;2.78;;
19585;SDS011;9939;49.246;9.106;2022-08-21T13:27:42;9.98;;;3.42;;
19585;SDS011;9939;49.246;9.106;2022-08-21T13:30:16;6.47;;;2.55;;
19585;SDS011;9939;49.246;9.106;2022-08-21T13:32:47;5.28;;;2.63;;
19585;SDS011;9939;49.246;9.106;2022-08-21T13:35:18;5.53;;;2.80;;
19585;SDS011;9939;49.246;9.106;2022-08-21T13:37:48;3.88;;;2.50;;
19585;SDS011;9939;49.246;9.106;2022-08-21T13:40:53;6.50;;;2.83;;
19585;SDS011;9939;49.246;9.106;2022-08-21T13:43:16;4.25;;;2.75;;
19585;SDS011;9939;49.246;9.106;2022-08-21T13:45:47;5.25;;;3.00;;
19585;SDS011;9939;49.246;9.106;2022-08-21T13:48:16;5.43;;;3.15;;
19585;SDS011;9939;49.246;9.106;2022-08-21T13:50:44;9.10;;;2.90;;
19585;SDS011;9939;49.246;9.106;2022-08-21T13:56:00;6.03;;;2.63;;
19585;SDS011;9939;49.246;9.106;2022-08-21T14:06:36;4.30;;;2.58;;
19585;SDS011;9939;49.246;9.106;2022-08-21T14:09:11;5.07;;;2.88;;
19585;SDS011;9939;49.246;9.106;2022-08-21T14:11:47;6.90;;;3.10;;
19585;SDS011;9939;49.246;9.106;2022-08-21T14:14:19;5.63;;;2.75;;
19585;SDS011;9939;49.246;9.106;2022-08-21T14:16:55;5.32;;;3.05;;
19585;SDS011;9939;49.246;9.106;2022-08-21T14:19:35;7.13;;;2.90;;
19585;SDS011;9939;49.246;9.106;2022-08-21T14:22:21;5.38;;;2.80;;
19585;SDS011;9939;49.246;9.106;2022-08-21T14:24:48;4.63;;;2.17;;
19585;SDS011;9939;49.246;9.106;2022-08-21T14:27:20;7.20;;;3.00;;
19585;SDS011;9939;49.246;9.106;2022-08-21T14:29:49;5.18;;;2.85;;
19585;SDS011;9939;49.246;9.106;2022-08-21T14:32:19;5.63;;;2.80;;
19585;SDS011;9939;49.246;9.106;2022-08-21T14:34:51;6.30;;;2.90;;
19585;SDS011;9939;49.246;9.106;2022-08-21T14:37:20;5.18;;;3.03;;
19585;SDS011;9939;49.246;9.106;2022-08-21T14:39:48;6.13;;;2.80;;
19585;SDS011;9939;49.246;9.106;2022-08-21T14:42:15;4.95;;;2.55;;
19585;SDS011;9939;49.246;9.106;2022-08-21T14:44:42;5.13;;;3.03;;
19585;SDS011;9939;49.246;9.106;2022-08-21T14:47:09;5.88;;;2.67;;
19585;SDS011;9939;49.246;9.106;2022-08-21T14:49:36;3.92;;;2.72;;
19585;SDS011;9939;49.246;9.106;2022-08-21T14:52:04;8.18;;;3.00;;
19585;SDS011;9939;49.246;9.106;2022-08-21T14:54:31;4.80;;;2.97;;
19585;SDS011;9939;49.246;9.106;2022-08-21T14:57:00;6.57;;;2.83;;
19585;SDS011;9939;49.246;9.106;2022-08-21T14:59:31;6.63;;;3.22;;
19585;SDS011;9939;49.246;9.106;2022-08-21T15:01:59;7.65;;;3.33;;
19585;SDS011;9939;49.246;9.106;2022-08-21T15:04:27;6.45;;;2.80;;
19585;SDS011;9939;49.246;9.106;2022-08-21T15:06:54;3.72;;;2.70;;
19585;SDS011;9939;49.246;9.106;2022-08-21T15:09:21;4.50;;;2.70;;
19585;SDS011;9939;49.246;9.106;2022-08-21T15:11:48;4.43;;;2.67;;
19585;SDS011;9939;49.246;9.106;2022-08-21T15:14:22;4.95;;;2.47;;
19585;SDS011;9939;49.246;9.106;2022-08-21T15:16:53;5.45;;;2.50;;
19585;SDS011;9939;49.246;9.106;2022-08-21T15:19:20;5.18;;;2.67;;
19585;SDS011;9939;49.246;9.106;2022-08-21T15:21:48;5.63;;;2.58;;
19585;SDS011;9939;49.246;9.106;2022-08-21T15:24:15;5.70;;;3.00;;
19585;SDS011;9939;49.246;9.106;2022-08-21T15:26:43;6.53;;;2.60;;
19585;SDS011;9939;49.246;9.106;2022-08-21T15:29:11;4.45;;;2.45;;
19585;SDS011;9939;49.246;9.106;2022-08-21T15:31:48;7.18;;;2.92;;
19585;SDS011;9939;49.246;9.106;2022-08-21T15:34:21;5.18;;;2.63;;
19585;SDS011;9939;49.246;9.106;2022-08-21T15:36:54;3.67;;;2.42;;
19585;SDS011;9939;49.246;9.106;2022-08-21T15:39:23;4.20;;;2.97;;
19585;SDS011;9939;49.246;9.106;2022-08-21T15:41:57;4.93;;;2.95;;
19585;SDS011;9939;49.246;9.106;2022-08-21T15:44:28;6.10;;;2.65;;
19585;SDS011;9939;49.246;9.106;2022-08-21T15:46:56;6.13;;;2.97;;
19585;SDS011;9939;49.246;9.106;2022-08-21T15:49:23;4.78;;;2.95;;
19585;SDS011;9939;49.246;9.106;2022-08-21T15:51:50;5.75;;;3.10;;
19585;SDS011;9939;49.246;9.106;2022-08-21T15:54:17;4.72;;;2.70;;
19585;SDS011;9939;49.246;9.106;2022-08-21T15:56:45;5.78;;;2.95;;
19585;SDS011;9939;49.246;9.106;2022-08-21T15:59:15;5.90;;;2.85;;
19585;SDS011;9939;49.246;9.106;2022-08-21T16:01:50;4.38;;;2.50;;
19585;SDS011;9939;49.246;9.106;2022-08-21T16:04:22;6.05;;;3.15;;
19585;SDS011;9939;49.246;9.106;2022-08-21T16:06:52;5.40;;;2.88;;
19585;SDS011;9939;49.246;9.106;2022-08-21T16:09:30;6.18;;;3.22;;
19585;SDS011;9939;49.246;9.106;2022-08-21T16:11:58;5.10;;;2.80;;
19585;SDS011;9939;49.246;9.106;2022-08-21T16:14:27;6.63;;;2.90;;
19585;SDS011;9939;49.246;9.106;2022-08-21T16:16:55;4.53;;;2.83;;
19585;SDS011;9939;49.246;9.106;2022-08-21T16:19:23;7.20;;;2.83;;
19585;SDS011;9939;49.246;9.106;2022-08-21T16:21:51;5.03;;;2.95;;
19585;SDS011;9939;49.246;9.106;2022-08-21T16:24:18;7.43;;;2.85;;
19585;SDS011;9939;49.246;9.106;2022-08-21T16:26:45;6.63;;;3.65;;
19585;SDS011;9939;49.246;9.106;2022-08-21T16:29:23;7.03;;;2.85;;
19585;SDS011;9939;49.246;9.106;2022-08-21T16:31:56;7.68;;;2.92;;
19585;SDS011;9939;49.246;9.106;2022-08-21T16:34:23;5.38;;;2.65;;
19585;SDS011;9939;49.246;9.106;2022-08-21T16:36:50;5.22;;;2.67;;
19585;SDS011;9939;49.246;9.106;2022-08-21T16:39:18;6.07;;;3.28;;
19585;SDS011;9939;49.246;9.106;2022-08-21T16:41:45;5.18;;;3.00;;
19585;SDS011;9939;49.246;9.106;2022-08-21T16:44:16;5.47;;;2.75;;
19585;SDS011;9939;49.246;9.106;2022-08-21T16:46:44;5.47;;;2.90;;
19585;SDS011;9939;49.246;9.106;2022-08-21T16:49:11;4.72;;;2.20;;
19585;SDS011;9939;49.246;9.106;2022-08-21T16:51:40;4.25;;;1.92;;